M I D A S
Marine Information and Data Acquisition System
Tripno 393 of the Zeeleeuw from 2002-11-12 07:59:55 to 2002-11-12 11:26:10
Back to CruiseResearch ActivitiesStationsMapUnderway DataData graphs

EquipmentUnitsComment
TimeDGPSUTC
LatitudeDGPSDM.mWGS84
LongitudeDGPSDM.mWGS84
TemperatureSBE03/SBE38deg celciusITS90
ConductivitySBE21S/mITS90
SalinitySBE21 Practical Salinity Units
ChlorophylAChelsea fluorimeterg/lCalibrated in Aceton
Missing or incorrect values are displayed as -999
Sea surface data collected by the RV Zeeleeuw from 2002-11-12 07:59:55 to 2002-11-12 11:26:10
Time Latitude Longitude Temperature Conductivity Salinity ChlorophylA
2002-11-12 08:00:59 51°13.832 2°55.634 29.186612 0.008324 0.045962  
2002-11-12 08:01:59 51°13.921 2°55.566 32.318907 0.008324 0.045965  
2002-11-12 08:02:59 51°14.03 2°55.485 28.801457 0.008324 0.045966  
2002-11-12 08:03:59 51°14.144 2°55.396 28.248911 0.008324 0.045968  
2002-11-12 08:04:58 51°14.247 2°55.275 29.785647 0.008324 0.04597  
2002-11-12 08:05:59 51°14.334 2°55.112 28.202127 0.008324 0.045971  
2002-11-12 08:06:59 51°14.416 2°54.896 28.418642 0.008324 0.045974  
2002-11-12 08:07:59 51°14.424 2°54.612 27.637072 0.008324 0.045977  
2002-11-12 08:08:59 51°14.36 2°54.352 28.385628 0.008324 0.045979  
2002-11-12 08:09:58 51°14.279 2°54.105 27.510248 0.008324 0.045982  
2002-11-12 08:10:59 51°14.196 2°53.848 28.212317 0.008324 0.045984  
2002-11-12 08:11:58 51°14.116 2°53.598 28.914015 0.008324 0.045987  
2002-11-12 08:12:59 51°14.034 2°53.34 28.01198 0.008324 0.045989  
2002-11-12 08:13:59 51°13.962 2°53.078 28.207764 0.008324 0.045993  
2002-11-12 08:14:59 51°13.887 2°52.817 26.902873 0.008324 0.045995  
2002-11-12 08:15:59 51°13.808 2°52.559 28.06149 0.008324 0.045998  
2002-11-12 08:16:59 51°13.729 2°52.299 15.698591 0.008324 0.045991  
2002-11-12 08:17:59 51°13.65 2°52.039 15.869537 0.008324 0.045998  
2002-11-12 08:18:59 51°13.569 2°51.779 16.284518 0.008324 0.046004  
2002-11-12 08:19:59 51°13.49 2°51.519 15.886587 0.008324 0.046008  
2002-11-12 08:20:58 51°13.41 2°51.264 16.085371 0.008324 0.046011  
2002-11-12 08:21:59 51°13.328 2°51.006 16.24869 0.008324 0.046013  
2002-11-12 08:22:59 51°13.248 2°50.752 16.126163 0.008324 0.046016  
2002-11-12 08:23:59 51°13.168 2°50.494 16.078906 0.008324 0.046018  
2002-11-12 08:24:59 51°13.087 2°50.238 16.280248 0.008324 0.046017  
2002-11-12 08:25:59 51°13.002 2°49.986 16.15859 0.008324 0.046022  
2002-11-12 08:26:59 51°12.917 2°49.734 16.257916 0.008324 0.046024  
2002-11-12 08:27:59 51°12.834 2°49.479 16.355477 0.008324 0.046026  
2002-11-12 08:28:59 51°12.752 2°49.225 16.485811 0.008324 0.046028  
2002-11-12 08:29:58 51°12.672 2°48.973 16.37441 0.008324 0.046031  
2002-11-12 08:30:59 51°12.588 2°48.715 16.337093 0.008324 0.046033  
2002-11-12 08:31:59 51°12.505 2°48.459 16.398622 0.008324 0.046035  
2002-11-12 08:32:59 51°12.423 2°48.204 16.395809 0.008324 0.046037  
2002-11-12 08:33:59 51°12.34 2°47.949 16.323868 0.008324 0.04604  
2002-11-12 08:34:59 51°12.258 2°47.694 16.431049 0.008324 0.046042  
2002-11-12 08:35:59 51°12.177 2°47.438 16.845825 0.008324 0.046045  
2002-11-12 08:36:59 51°12.095 2°47.181 16.845867 0.008324 0.046047  
2002-11-12 08:37:59 51°12.013 2°46.927 16.630468 0.008324 0.046049  
2002-11-12 08:38:59 51°11.932 2°46.674 16.525641 0.008324 0.046052  
2002-11-12 08:39:59 51°11.851 2°46.42 16.667412 0.008324 0.046054  
2002-11-12 08:40:59 51°11.77 2°46.164 16.842522 0.008324 0.046057  
2002-11-12 08:41:59 51°11.69 2°45.91 16.872665 0.00822 0.045566  
2002-11-12 08:42:59 51°11.61 2°45.657 17.014145 0.008324 0.046062  
2002-11-12 08:43:58 51°11.532 2°45.406 16.77037 0.00822 0.04557  
2002-11-12 08:44:59 51°11.46 2°45.137 29.832306 0.00822 0.045567  
2002-11-12 08:45:59 51°11.392 2°44.872 28.572743 0.00822 0.045576  
2002-11-12 08:46:59 51°11.328 2°44.604 27.8301 0.008324 0.046074  
2002-11-12 08:47:59 51°11.263 2°44.334 27.732994 0.00822 0.045581  
2002-11-12 08:48:59 51°11.198 2°44.061 28.570873 0.00822 0.045583  
2002-11-12 08:49:59 51°11.133 2°43.79 28.103224 0.00822 0.045585  
2002-11-12 08:50:59 51°11.076 2°43.537 27.768697 0.00822 0.045586  
2002-11-12 08:51:59 51°11.115 2°43.416 27.531181 0.00822 0.045588  
2002-11-12 08:52:59 51°11.185 2°43.437 27.317191 0.00822 0.045589  
2002-11-12 08:53:59 51°11.212 2°43.531 27.284637 0.00822 0.045592  
2002-11-12 08:54:59 51°11.221 2°43.645 27.014363 0.00822 0.045593  
2002-11-12 08:55:59 51°11.198 2°43.743 27.60484 0.00822 0.045596  
2002-11-12 08:57:00 51°11.202 2°43.764 26.57659 0.00822 0.045598  
2002-11-12 08:57:59 51°11.211 2°43.788 26.897393 0.00822 0.0456  
2002-11-12 08:58:59 51°11.222 2°43.82 26.237506 0.00822 0.045602  
2002-11-12 08:59:59 51°11.228 2°43.846 26.290402 0.00822 0.045604  
2002-11-12 09:00:59 51°11.24 2°43.868 25.539972 0.00822 0.045607  
2002-11-12 09:01:59 51°11.253 2°43.89 26.221511 0.00822 0.045609  
2002-11-12 09:02:59 51°11.267 2°43.911 27.191285 0.00822 0.045611  
2002-11-12 09:03:59 51°11.282 2°43.93 27.618572 0.00822 0.045613  
2002-11-12 09:04:59 51°11.297 2°43.949 27.14834 0.00822 0.045615  
2002-11-12 09:05:58 51°11.311 2°43.968 27.486718 0.00822 0.045618  
2002-11-12 09:06:59 51°11.326 2°43.986 29.018718 0.00822 0.045621  
2002-11-12 09:07:58 51°11.34 2°44.002 26.852327 0.00822 0.045623  
2002-11-12 09:08:59 51°11.352 2°44.03 26.445495 0.00822 0.045625  
2002-11-12 09:09:59 51°11.363 2°44.054 26.823471 0.00822 0.045627  
2002-11-12 09:10:59 51°11.376 2°44.075 27.107718 0.00822 0.045629  
2002-11-12 09:11:59 51°11.39 2°44.095 25.82349 0.00822 0.045631  
2002-11-12 09:12:59 51°11.402 2°44.113 26.923611 0.00822 0.045633  
2002-11-12 09:13:59 51°11.415 2°44.132 26.204622 0.00822 0.045635  
2002-11-12 09:14:59 51°11.43 2°44.149 25.185785 0.00822 0.045637  
2002-11-12 09:15:59 51°11.446 2°44.166 26.299301 0.00822 0.045639  
2002-11-12 09:16:59 51°11.46 2°44.183 25.761929 0.00822 0.04564  
2002-11-12 09:17:59 51°11.474 2°44.198 26.691043 0.00822 0.045642  
2002-11-12 09:18:59 51°11.49 2°44.216 27.040319 0.00822 0.045644  
2002-11-12 09:19:58 51°11.499 2°44.25 27.3995 0.00822 0.045645  
2002-11-12 09:20:58 51°11.431 2°44.29 26.855198 0.00822 0.045647  
2002-11-12 09:21:59 51°11.357 2°44.046 26.386267 0.00822 0.04565  
2002-11-12 09:22:59 51°11.276 2°43.724 27.59606 0.00822 0.045653  
2002-11-12 09:23:59 51°11.185 2°43.405 26.338813 0.00822 0.045656  
2002-11-12 09:24:59 51°11.074 2°43.107 26.533435 0.00822 0.045657  
2002-11-12 09:25:59 51°10.958 2°42.811 27.984222 0.00822 0.04566  
2002-11-12 09:26:59 51°10.84 2°42.513 27.491315 0.00822 0.045662  
2002-11-12 09:27:59 51°10.723 2°42.215 27.528009 0.00822 0.045663  
2002-11-12 09:28:59 51°10.612 2°41.927 27.779964 0.00822 0.045666  
2002-11-12 09:29:59 51°10.52 2°41.667 26.910816 0.00822 0.045667  
2002-11-12 09:30:59 51°10.433 2°41.408 26.809407 0.00822 0.04567  
2002-11-12 09:31:58 51°10.348 2°41.153 26.702991 0.00822 0.045673  
2002-11-12 09:32:59 51°10.259 2°40.89 27.400742 0.00822 0.045674  
2002-11-12 09:33:59 51°10.171 2°40.63 28.63191 0.00822 0.045677  
2002-11-12 09:34:59 51°10.084 2°40.369 27.128912 0.00822 0.045678  
2002-11-12 09:35:59 51°9.995 2°40.107 27.76339 0.00822 0.04568  
2002-11-12 09:36:59 51°9.907 2°39.846 27.777202 0.00822 0.045682  
2002-11-12 09:37:58 51°9.822 2°39.59 27.274905 0.00822 0.045683  
2002-11-12 09:38:59 51°9.732 2°39.326 27.05566 0.00822 0.045685  
2002-11-12 09:39:59 51°9.65 2°39.059 27.892651 0.00822 0.045686  
2002-11-12 09:40:59 51°9.572 2°38.79 27.279076 0.00822 0.045688  
2002-11-12 09:41:59 51°9.494 2°38.521 27.979764 0.00822 0.045689  
2002-11-12 09:42:59 51°9.416 2°38.254 27.695309 0.00822 0.045691  
2002-11-12 09:43:59 51°9.337 2°37.986 27.462596 0.00822 0.045692  
2002-11-12 09:44:59 51°9.262 2°37.715 27.684648 0.00822 0.045694  
2002-11-12 09:45:59 51°9.192 2°37.439 27.518965 0.00822 0.045696  
2002-11-12 09:46:59 51°9.122 2°37.162 28.19002 0.00822 0.045697  
2002-11-12 09:47:59 51°9.066 2°36.876 27.926899 0.00822 0.045699  
2002-11-12 09:48:59 51°9.011 2°36.588 27.902883 0.00822 0.045699  
2002-11-12 09:49:59 51°8.955 2°36.299 28.005349 0.00822 0.045701  
2002-11-12 09:50:59 51°8.898 2°36.012 27.481463 0.00822 0.045701  
2002-11-12 09:51:59 51°8.841 2°35.723 27.911337 0.00822 0.045703  
2002-11-12 09:52:59 51°8.783 2°35.436 27.777456 0.00822 0.045705  
2002-11-12 09:53:59 51°8.759 2°35.14 27.86808 0.00822 0.045705  
2002-11-12 09:54:59 51°8.832 2°34.856 27.578424 0.00822 0.045707  
2002-11-12 09:55:59 51°8.971 2°34.638 27.793591 0.00822 0.045708  
2002-11-12 09:56:59 51°9.149 2°34.515 27.244785 0.00822 0.04571  
2002-11-12 09:57:59 51°9.342 2°34.502 28.206102 0.00822 0.045712  
2002-11-12 09:58:59 51°9.538 2°34.529 27.059 0.00822 0.045714  
2002-11-12 09:59:59 51°9.736 2°34.546 27.578242 0.00822 0.045715  
2002-11-12 10:00:59 51°9.934 2°34.58 27.855918 0.00822 0.045717  
2002-11-12 10:01:59 51°10.124 2°34.665 27.93078 0.00822 0.045718  
2002-11-12 10:02:59 51°10.281 2°34.851 27.68836 0.00822 0.045719  
2002-11-12 10:03:59 51°10.415 2°35.078 27.479164 0.00822 0.04572  
2002-11-12 10:04:59 51°10.549 2°35.305 29.394479 0.00822 0.045719  
2002-11-12 10:05:59 51°10.68 2°35.537 28.006436 0.00822 0.045723  
2002-11-12 10:06:59 51°10.803 2°35.775 28.072061 0.00822 0.045723  
2002-11-12 10:07:59 51°10.919 2°36.023 27.823999 0.00822 0.045725  
2002-11-12 10:08:59 51°11.034 2°36.273 28.515438 0.00822 0.045727  
2002-11-12 10:09:59 51°11.15 2°36.521 27.399172 0.00822 0.045727  
2002-11-12 10:10:59 51°11.259 2°36.776 26.102832 0.00822 0.045728  
2002-11-12 10:11:59 51°11.367 2°37.031 27.478873 0.00822 0.045731  
2002-11-12 10:12:59 51°11.475 2°37.284 27.703059 0.00822 0.045733  
2002-11-12 10:13:59 51°11.584 2°37.536 27.591214 0.008116 0.045236  
2002-11-12 10:14:59 51°11.694 2°37.79 27.088352 0.00822 0.045733  
2002-11-12 10:15:59 51°11.803 2°38.044 26.131229 0.00822 0.045741  
2002-11-12 10:16:59 51°11.913 2°38.296 26.403596 0.00822 0.045743  
2002-11-12 10:17:59 51°12.022 2°38.551 27.677224 0.00822 0.045744  
2002-11-12 10:18:59 51°12.131 2°38.804 27.201724 0.00822 0.045744  
2002-11-12 10:19:59 51°12.24 2°39.058 27.813973 0.00822 0.045742  
2002-11-12 10:20:59 51°12.35 2°39.31 27.680354 0.008116 0.045249  
2002-11-12 10:21:59 51°12.45 2°39.571 28.355628 0.00822 0.045748  
2002-11-12 10:22:59 51°12.541 2°39.839 27.455296 0.00822 0.045749  
2002-11-12 10:23:59 51°12.631 2°40.107 27.36457 0.00822 0.045751  
2002-11-12 10:24:59 51°12.721 2°40.375 28.466875 0.00822 0.045752  
2002-11-12 10:25:59 51°12.808 2°40.643 27.744085 0.00822 0.045754  
2002-11-12 10:26:59 51°12.894 2°40.911 27.514369 0.008116 0.045259  
2002-11-12 10:27:59 51°12.979 2°41.178 27.57795 0.008116 0.045259  
2002-11-12 10:28:59 51°13.063 2°41.445 28.077781 0.008116 0.045261  
2002-11-12 10:29:59 51°13.148 2°41.712 28.349425 0.00822 0.04576  
2002-11-12 10:30:59 51°13.234 2°41.981 29.09957 0.008116 0.045263  
2002-11-12 10:31:59 51°13.321 2°42.252 28.380328 0.008116 0.045264  
2002-11-12 10:32:59 51°13.409 2°42.522 27.93263 0.008116 0.045266  
2002-11-12 10:33:59 51°13.492 2°42.793 27.960116 0.00822 0.045765  
2002-11-12 10:34:59 51°13.565 2°43.069 27.999189 0.00822 0.045766  
2002-11-12 10:35:59 51°13.638 2°43.346 27.64967 0.008116 0.045269  
2002-11-12 10:36:59 51°13.713 2°43.623 29.893036 0.008116 0.045269  
2002-11-12 10:37:59 51°13.785 2°43.901 28.444906 0.008116 0.04527  
2002-11-12 10:38:59 51°13.858 2°44.177 27.999515 0.008116 0.045273  
2002-11-12 10:39:59 51°13.926 2°44.46 27.908543 0.008116 0.045274  
2002-11-12 10:40:59 51°13.995 2°44.744 27.975088 0.008116 0.045275  
2002-11-12 10:41:59 51°14.062 2°45.029 27.605896 0.008116 0.045276  
2002-11-12 10:42:59 51°14.128 2°45.314 28.657919 0.008116 0.045276  
2002-11-12 10:43:59 51°14.197 2°45.599 28.171584 0.008116 0.045278  
2002-11-12 10:44:59 51°14.264 2°45.887 28.673435 0.008116 0.04528  
2002-11-12 10:45:59 51°14.33 2°46.172 26.986965 0.008116 0.045281  
2002-11-12 10:46:59 51°14.397 2°46.455 28.085599 0.008116 0.045283  
2002-11-12 10:47:59 51°14.462 2°46.739 27.403263 0.008116 0.045284  
2002-11-12 10:48:59 51°14.527 2°47.026 27.905423 0.008116 0.045285  
2002-11-12 10:49:59 51°14.592 2°47.311 27.86641 0.008116 0.045287  
2002-11-12 10:50:59 51°14.655 2°47.594 28.002704 0.008116 0.045289  
2002-11-12 10:51:59 51°14.719 2°47.879 27.723684 0.008116 0.04529  
2002-11-12 10:52:59 51°14.781 2°48.164 28.055045 0.008116 0.045292  
2002-11-12 10:53:59 51°14.846 2°48.453 28.035163 0.008116 0.045292  
2002-11-12 10:54:59 51°14.913 2°48.74 27.388176 0.008116 0.045294  
2002-11-12 10:55:59 51°14.977 2°49.026 27.698984 0.008116 0.045294  
2002-11-12 10:56:59 51°15.034 2°49.274 27.386824 0.008116 0.045296  
2002-11-12 10:57:59 51°15.08 2°49.474 28.815689 0.008116 0.045297  
2002-11-12 10:58:59 51°15.118 2°49.642 27.839506 0.008116 0.045299  
2002-11-12 10:59:59 51°15.148 2°49.768 28.643766 0.008116 0.045299  
2002-11-12 11:00:59 51°15.179 2°49.881 28.246527 0.008116 0.045299  
2002-11-12 11:01:59 51°15.227 2°50.059 29.268602 0.008116 0.0453  
2002-11-12 11:02:59 51°15.292 2°50.331 27.449529 0.008116 0.045301  
2002-11-12 11:03:59 51°15.321 2°50.624 27.910357 0.008116 0.045301  
2002-11-12 11:04:59 51°15.321 2°50.919 28.185899 0.008116 0.045302  
2002-11-12 11:05:59 51°15.304 2°51.209 29.556819 0.008116 0.045303  
2002-11-12 11:06:59 51°15.281 2°51.499 27.971898 0.008116 0.045305  
2002-11-12 11:07:59 51°15.249 2°51.783 28.308297 0.008116 0.045306  
2002-11-12 11:08:59 51°15.199 2°52.063 27.346441 0.008116 0.045307  
2002-11-12 11:09:59 51°15.127 2°52.326 27.686213 0.008116 0.045309  
2002-11-12 11:10:59 51°15.043 2°52.576 28.135024 0.008116 0.045311  
2002-11-12 11:11:59 51°14.966 2°52.834 28.756918 0.008116 0.045313  
2002-11-12 11:12:59 51°14.886 2°53.091 27.946991 0.008116 0.045315  
2002-11-12 11:13:59 51°14.815 2°53.358 28.365401 0.008116 0.045316  
2002-11-12 11:14:59 51°14.749 2°53.626 29.304436 0.008116 0.045318  
2002-11-12 11:15:59 51°14.681 2°53.89 27.767134 0.008116 0.04532  
2002-11-12 11:16:59 51°14.619 2°54.161 28.833752 0.008116 0.045321  
2002-11-12 11:17:59 51°14.556 2°54.422 28.631586 0.008116 0.045322  
2002-11-12 11:18:59 51°14.491 2°54.668 27.657133 0.008116 0.045324  
2002-11-12 11:19:59 51°14.417 2°54.906 28.957888 0.008116 0.045325  
2002-11-12 11:20:58 51°14.335 2°55.124 29.041521 0.008116 0.045326  
2002-11-12 11:21:59 51°14.263 2°55.262 28.69724 0.008116 0.045327  
2002-11-12 11:22:59 51°14.2 2°55.348 28.854246 0.008116 0.045328  
2002-11-12 11:23:59 51°14.137 2°55.404 28.74899 0.008116 0.045328  
2002-11-12 11:24:59 51°14.073 2°55.452 27.921857 0.008116 0.045329  
2002-11-12 11:25:59 51°14.005 2°55.499 27.930526 0.008116 0.045329